Time;durP1;ratioP1;P1;durP2;ratioP2;P2;SDS_P1;SDS_P2;PMS_P1;PMS_P2;Temp;Humidity;BMP_temperature;BMP_pressure;BME280_temperature;BME280_humidity;BME280_pressure;Samples;Min_cycle;Max_cycle;Signal;HPM_P1;HPM_P2
2022/11/09 00:02:22;;;;;;;18.98;11.95;;;13.00;99.90;;;;;;5015900;28;20021;-76
2022/11/09 00:04:48;;;;;;;24.55;13.18;;;13.10;99.90;;;;;;5011774;28;20026;-76
2022/11/09 00:07:14;;;;;;;26.90;12.00;;;13.00;99.90;;;;;;5014556;28;20034;-76
2022/11/09 00:09:40;;;;;;;21.55;12.77;;;13.10;99.90;;;;;;5031193;28;20028;-76
2022/11/09 00:12:07;;;;;;;25.15;14.07;;;13.00;99.90;;;;;;5017960;28;20025;-76
2022/11/09 00:14:34;;;;;;;19.38;12.90;;;13.10;99.90;;;;;;5029542;28;20482;-76
2022/11/09 00:17:00;;;;;;;20.38;13.23;;;13.10;99.90;;;;;;5017710;28;20042;-76
2022/11/09 00:19:26;;;;;;;28.67;14.07;;;13.10;99.90;;;;;;5027048;28;20036;-76
2022/11/09 00:21:52;;;;;;;17.58;12.95;;;13.10;99.90;;;;;;5016071;28;20441;-76
2022/11/09 00:24:18;;;;;;;25.48;13.50;;;13.10;99.90;;;;;;5017137;28;20026;-76
2022/11/09 00:26:43;;;;;;;25.90;14.68;;;13.10;99.90;;;;;;5017986;28;20026;-76
2022/11/09 00:29:09;;;;;;;29.17;13.63;;;13.20;99.90;;;;;;5018583;28;20117;-76
2022/11/09 00:31:35;;;;;;;25.35;13.77;;;13.20;99.90;;;;;;5016952;28;20026;-76
2022/11/09 00:34:01;;;;;;;25.08;12.77;;;13.20;99.90;;;;;;5025562;28;20030;-76
2022/11/09 00:36:28;;;;;;;23.15;13.45;;;13.20;99.90;;;;;;5028780;28;20040;-76
2022/11/09 00:38:58;;;;;;;19.35;11.75;;;13.20;99.90;;;;;;5026712;28;20049;-76
2022/11/09 00:41:25;;;;;;;19.65;11.20;;;13.20;99.90;;;;;;5027017;28;20045;-77
2022/11/09 00:43:51;;;;;;;17.73;11.23;;;13.30;99.90;;;;;;5024110;28;20032;-76
2022/11/09 00:46:18;;;;;;;20.88;12.50;;;13.20;99.90;;;;;;5025065;28;20018;-76
2022/11/09 00:48:44;;;;;;;19.60;13.30;;;13.30;99.90;;;;;;5020493;28;20066;-76
2022/11/09 00:51:10;;;;;;;23.95;13.85;;;13.30;99.90;;;;;;5022602;28;20050;-76
2022/11/09 00:53:36;;;;;;;28.98;14.10;;;13.30;99.90;;;;;;5019828;28;20025;-76
2022/11/09 00:56:05;;;;;;;26.80;13.20;;;13.30;99.90;;;;;;5023941;28;20049;-77
2022/11/09 00:58:33;;;;;;;24.90;13.93;;;13.30;99.90;;;;;;5020941;28;20033;-76
2022/11/09 01:01:12;;;;;;;23.77;13.05;;;13.30;99.90;;;;;;5021369;28;20026;-76
2022/11/09 01:03:38;;;;;;;26.45;13.43;;;13.30;99.90;;;;;;5011769;28;20023;-76
2022/11/09 01:06:04;;;;;;;31.00;12.68;;;13.30;99.90;;;;;;5015236;28;20022;-76
2022/11/09 01:08:31;;;;;;;19.13;12.10;;;13.30;99.90;;;;;;5016261;28;20589;-76
2022/11/09 01:10:57;;;;;;;18.80;12.07;;;13.30;99.90;;;;;;5029915;28;20017;-77
2022/11/09 01:13:23;;;;;;;21.35;11.90;;;13.30;99.90;;;;;;5018907;28;20033;-77
2022/11/09 01:15:51;;;;;;;23.35;12.65;;;13.30;99.90;;;;;;5028562;28;20058;-77
2022/11/09 01:18:18;;;;;;;16.67;12.20;;;13.30;99.90;;;;;;5017517;28;20041;-76
2022/11/09 01:20:46;;;;;;;25.05;13.20;;;13.30;99.90;;;;;;5018943;28;20025;-76
2022/11/09 01:23:14;;;;;;;22.30;13.77;;;13.30;99.90;;;;;;5017135;28;20032;-76
2022/11/09 01:25:40;;;;;;;27.42;14.35;;;13.30;99.90;;;;;;5018574;28;20025;-77
2022/11/09 01:28:07;;;;;;;22.52;14.23;;;13.30;99.90;;;;;;5016464;28;20057;-77
2022/11/09 01:30:37;;;;;;;24.85;13.82;;;13.30;99.90;;;;;;5018102;28;20394;-77
2022/11/09 01:33:08;;;;;;;23.65;14.60;;;13.30;99.90;;;;;;5018727;28;20084;-76
2022/11/09 01:35:36;;;;;;;31.83;15.60;;;13.20;99.90;;;;;;5035237;28;20398;-77
2022/11/09 01:38:02;;;;;;;19.95;12.45;;;13.10;99.90;;;;;;5018670;28;20030;-77
2022/11/09 01:40:29;;;;;;;22.55;13.43;;;13.10;99.90;;;;;;5032901;28;20527;-76
2022/11/09 01:42:55;;;;;;;17.35;11.00;;;13.00;99.90;;;;;;5018669;28;20030;-77
2022/11/09 01:45:29;;;;;;;26.67;12.93;;;13.00;99.90;;;;;;5029508;28;20032;-76
2022/11/09 01:48:07;;;;;;;24.35;13.32;;;13.00;99.90;;;;;;5017562;28;20057;-76
2022/11/09 01:50:49;;;;;;;17.08;11.40;;;12.90;99.90;;;;;;5028091;28;20029;-76
2022/11/09 01:53:22;;;;;;;18.02;10.68;;;13.00;99.90;;;;;;5016604;28;20034;-77
2022/11/09 01:55:51;;;;;;;24.13;11.40;;;13.00;99.90;;;;;;5022684;28;20376;-76
2022/11/09 01:58:24;;;;;;;15.77;10.90;;;13.00;99.90;;;;;;5015224;28;20548;-76
2022/11/09 02:00:50;;;;;;;22.75;11.73;;;13.00;99.90;;;;;;5019539;28;20041;-76
2022/11/09 02:03:33;;;;;;;21.73;11.68;;;13.00;99.90;;;;;;5021466;28;20034;-76
2022/11/09 02:06:02;;;;;;;25.50;12.57;;;13.00;99.90;;;;;;5031441;28;20022;-76
2022/11/09 02:08:28;;;;;;;17.73;11.98;;;13.00;99.90;;;;;;5012490;28;20062;-76
2022/11/09 02:11:00;;;;;;;18.58;12.25;;;13.00;99.90;;;;;;5028673;28;20052;-76
2022/11/09 02:13:28;;;;;;;28.88;13.30;;;13.00;99.90;;;;;;5020199;28;20038;-75
2022/11/09 02:15:54;;;;;;;26.27;13.93;;;13.00;99.90;;;;;;5027485;28;20038;-76
2022/11/09 02:18:20;;;;;;;22.77;13.85;;;13.00;99.90;;;;;;5017619;28;20082;-76
2022/11/09 02:20:55;;;;;;;17.10;12.70;;;12.90;99.90;;;;;;5018526;28;20022;-76
2022/11/09 02:23:21;;;;;;;30.85;14.52;;;12.90;99.90;;;;;;5017741;28;20100;-76
2022/11/09 02:26:07;;;;;;;23.95;13.30;;;12.80;99.90;;;;;;5017099;28;20045;-76
2022/11/09 02:28:36;;;;;;;27.73;12.63;;;12.80;99.90;;;;;;5017343;28;20395;-76
2022/11/09 02:31:03;;;;;;;18.85;13.85;;;12.70;99.90;;;;;;5015226;28;20095;-76
2022/11/09 02:33:38;;;;;;;19.80;12.93;;;12.70;99.90;;;;;;5023110;28;20029;-76
2022/11/09 02:36:04;;;;;;;19.80;12.85;;;12.60;99.90;;;;;;5030098;28;20113;-76
2022/11/09 02:38:30;;;;;;;19.08;13.10;;;12.60;99.90;;;;;;5026780;28;20060;-76
2022/11/09 02:40:56;;;;;;;21.02;14.27;;;12.50;99.90;;;;;;5033238;28;20022;-76
2022/11/09 02:43:22;;;;;;;22.15;14.98;;;12.40;99.90;;;;;;5023676;28;20077;-76
2022/11/09 02:45:48;;;;;;;23.90;13.57;;;12.40;99.90;;;;;;5033620;28;20037;-77
2022/11/09 02:48:14;;;;;;;26.02;13.70;;;12.40;99.90;;;;;;5018372;28;20029;-76
2022/11/09 02:50:39;;;;;;;24.75;13.23;;;12.30;99.90;;;;;;5022631;28;20433;-76
2022/11/09 02:53:05;;;;;;;19.92;12.02;;;12.30;99.90;;;;;;5014835;28;20062;-76
2022/11/09 02:55:31;;;;;;;18.75;13.90;;;12.30;99.90;;;;;;5027276;28;20025;-76
2022/11/09 02:57:57;;;;;;;27.08;15.05;;;12.20;99.90;;;;;;5018058;28;20490;-76
2022/11/09 03:00:22;;;;;;;24.38;14.68;;;12.20;99.90;;;;;;5023393;28;20025;-76
2022/11/09 03:02:48;;;;;;;21.55;14.13;;;12.20;99.90;;;;;;5015966;28;20018;-76
2022/11/09 03:05:14;;;;;;;33.05;16.75;;;12.20;99.90;;;;;;5014610;28;20553;-77
2022/11/09 03:07:40;;;;;;;26.48;15.15;;;12.20;99.90;;;;;;5019266;28;20068;-77
2022/11/09 03:10:06;;;;;;;27.17;15.43;;;12.20;99.90;;;;;;5032635;28;20033;-76
2022/11/09 03:12:32;;;;;;;28.50;16.13;;;12.20;99.90;;;;;;5019934;28;20029;-76
2022/11/09 03:14:59;;;;;;;28.65;15.82;;;12.20;99.90;;;;;;5031408;28;20525;-76
2022/11/09 03:17:26;;;;;;;25.02;15.52;;;12.20;99.90;;;;;;5020181;28;20034;-76
2022/11/09 03:19:52;;;;;;;20.65;15.05;;;12.10;99.90;;;;;;5026395;28;20018;-76
2022/11/09 03:22:19;;;;;;;26.00;14.85;;;12.20;99.90;;;;;;5029267;28;20026;-76
2022/11/09 03:24:45;;;;;;;28.45;15.60;;;12.20;99.90;;;;;;5022067;28;20075;-77
2022/11/09 03:27:11;;;;;;;25.83;14.55;;;12.10;99.90;;;;;;5018477;28;20022;-76
2022/11/09 03:29:37;;;;;;;24.77;15.48;;;12.10;99.90;;;;;;5019329;28;20040;-76
2022/11/09 03:32:04;;;;;;;21.25;16.48;;;12.10;99.90;;;;;;5021612;28;20030;-76
2022/11/09 03:34:30;;;;;;;25.33;16.67;;;12.10;99.90;;;;;;5031159;28;20029;-76
2022/11/09 03:36:56;;;;;;;24.02;15.27;;;12.10;99.90;;;;;;5029151;28;20044;-76
2022/11/09 03:39:22;;;;;;;21.58;15.52;;;12.10;99.90;;;;;;5028111;28;20478;-76
2022/11/09 03:41:48;;;;;;;21.40;16.02;;;12.00;99.90;;;;;;5027129;28;20533;-76
2022/11/09 03:44:14;;;;;;;30.15;15.77;;;12.00;99.90;;;;;;5026301;28;20440;-76
2022/11/09 03:46:40;;;;;;;24.10;15.90;;;12.00;99.90;;;;;;5023630;28;20109;-76
2022/11/09 03:49:06;;;;;;;30.95;16.55;;;12.00;99.90;;;;;;5025937;28;20095;-76
2022/11/09 03:51:32;;;;;;;23.10;16.42;;;12.00;99.90;;;;;;5020270;28;20021;-76
2022/11/09 03:53:58;;;;;;;21.33;16.40;;;12.10;99.90;;;;;;5022724;28;20393;-76
2022/11/09 03:56:23;;;;;;;28.77;16.67;;;12.10;99.90;;;;;;5018415;28;20034;-76
2022/11/09 03:58:49;;;;;;;30.55;16.40;;;12.10;99.90;;;;;;5021090;28;20021;-76
2022/11/09 04:01:15;;;;;;;23.80;15.52;;;12.20;99.90;;;;;;5018240;28;20027;-76
2022/11/09 04:03:41;;;;;;;22.13;15.25;;;12.20;99.90;;;;;;5010089;28;20022;-76
2022/11/09 04:06:07;;;;;;;22.42;15.75;;;12.10;99.90;;;;;;5014771;28;20034;-76
2022/11/09 04:08:33;;;;;;;23.13;15.43;;;12.10;99.90;;;;;;5021269;28;20376;-76
2022/11/09 04:10:59;;;;;;;22.95;15.50;;;12.10;99.90;;;;;;5031435;28;20032;-76
2022/11/09 04:13:25;;;;;;;20.50;13.70;;;12.10;99.90;;;;;;5024663;28;20498;-76
2022/11/09 04:15:50;;;;;;;24.60;14.07;;;12.10;99.90;;;;;;5029994;28;20506;-76
2022/11/09 04:18:16;;;;;;;26.70;15.18;;;12.10;99.90;;;;;;5019362;28;20044;-76
2022/11/09 04:20:42;;;;;;;27.90;15.00;;;12.10;99.90;;;;;;5020682;28;20055;-76
2022/11/09 04:23:11;;;;;;;28.65;14.85;;;12.10;99.90;;;;;;5018307;28;20017;-76
2022/11/09 04:25:39;;;;;;;35.65;17.58;;;12.10;99.90;;;;;;5020716;28;20436;-76
2022/11/09 04:28:06;;;;;;;29.33;17.42;;;12.10;99.90;;;;;;5017717;28;20022;-76
2022/11/09 04:30:33;;;;;;;24.35;16.17;;;12.20;99.90;;;;;;5018826;28;20092;-76
2022/11/09 04:33:00;;;;;;;25.30;15.60;;;12.30;99.90;;;;;;5020312;28;20084;-76
2022/11/09 04:35:27;;;;;;;21.85;14.52;;;12.30;99.90;;;;;;5034851;28;20500;-76
2022/11/09 04:37:59;;;;;;;31.70;18.33;;;12.30;99.90;;;;;;5021408;28;20029;-76
2022/11/09 04:40:26;;;;;;;27.20;17.75;;;12.40;99.90;;;;;;5033615;28;20440;-76
2022/11/09 04:42:52;;;;;;;32.17;17.65;;;12.40;99.90;;;;;;5019329;28;20018;-76
2022/11/09 04:45:19;;;;;;;31.25;19.95;;;12.50;99.90;;;;;;5021146;28;20026;-76
2022/11/09 04:47:45;;;;;;;21.40;15.75;;;12.50;99.90;;;;;;5013225;28;20026;-76
2022/11/09 04:50:11;;;;;;;27.05;16.33;;;12.60;99.90;;;;;;5025464;28;20707;-76
2022/11/09 04:52:37;;;;;;;26.33;17.58;;;12.50;99.90;;;;;;5017263;28;20026;-76
2022/11/09 04:55:03;;;;;;;33.58;17.73;;;12.60;99.90;;;;;;5022286;28;20096;-76
2022/11/09 04:57:29;;;;;;;30.38;16.23;;;12.50;99.90;;;;;;5015501;28;20483;-76
2022/11/09 04:59:55;;;;;;;30.38;16.50;;;12.50;99.90;;;;;;5018264;28;20117;-76
2022/11/09 05:02:21;;;;;;;26.75;15.30;;;12.50;99.90;;;;;;5018347;28;20030;-76
2022/11/09 05:04:47;;;;;;;24.55;15.15;;;12.50;99.90;;;;;;5012973;28;20543;-76
2022/11/09 05:07:12;;;;;;;25.17;14.23;;;12.50;99.90;;;;;;5013402;28;20022;-76
2022/11/09 05:09:38;;;;;;;20.95;14.40;;;12.50;99.90;;;;;;5030945;28;20028;-76
2022/11/09 05:12:04;;;;;;;25.15;15.82;;;12.50;99.90;;;;;;5022577;28;20418;-76
2022/11/09 05:14:30;;;;;;;24.70;16.42;;;12.60;99.90;;;;;;5028488;28;20072;-76
2022/11/09 05:16:56;;;;;;;31.13;16.80;;;12.60;99.90;;;;;;5021820;28;20420;-75
2022/11/09 05:19:22;;;;;;;26.80;17.45;;;12.70;99.90;;;;;;5026710;28;20044;-76
2022/11/09 05:21:47;;;;;;;28.35;16.52;;;12.70;99.90;;;;;;5017136;28;20513;-76
2022/11/09 05:24:13;;;;;;;28.58;16.60;;;12.70;99.90;;;;;;5018189;28;20018;-76
2022/11/09 05:26:41;;;;;;;33.78;18.17;;;12.70;99.90;;;;;;5019334;28;20909;-76
2022/11/09 05:29:11;;;;;;;29.70;17.75;;;12.80;99.90;;;;;;5017175;28;20486;-76
2022/11/09 05:31:38;;;;;;;32.67;17.45;;;12.80;99.90;;;;;;5016677;28;20037;-76
2022/11/09 05:34:05;;;;;;;26.13;16.15;;;12.80;99.90;;;;;;5024583;28;20083;-76
2022/11/09 05:36:32;;;;;;;29.08;16.83;;;12.90;99.90;;;;;;5028801;28;20022;-76
2022/11/09 05:38:59;;;;;;;28.70;17.77;;;12.80;99.90;;;;;;5026553;28;20481;-75
2022/11/09 05:41:25;;;;;;;25.15;16.77;;;12.80;99.90;;;;;;5026861;28;20081;-76
2022/11/09 05:43:51;;;;;;;26.05;15.90;;;12.90;99.90;;;;;;5025113;28;20494;-76
2022/11/09 05:46:18;;;;;;;29.10;15.98;;;12.90;99.90;;;;;;5041847;28;20041;-76
2022/11/09 05:48:45;;;;;;;27.73;16.45;;;12.90;99.90;;;;;;5020343;28;20053;-76
2022/11/09 05:51:13;;;;;;;28.75;16.33;;;12.90;99.90;;;;;;5022632;28;20019;-76
2022/11/09 05:53:39;;;;;;;27.17;16.35;;;12.90;99.90;;;;;;5035018;28;20120;-76
2022/11/09 05:56:08;;;;;;;21.52;16.15;;;12.90;99.90;;;;;;5022286;28;20044;-76
2022/11/09 05:58:37;;;;;;;30.65;17.20;;;12.90;99.90;;;;;;5016388;28;20116;-76
2022/11/09 06:01:05;;;;;;;26.15;17.83;;;12.90;99.90;;;;;;5019206;28;20022;-76
2022/11/09 06:03:31;;;;;;;23.80;16.45;;;12.80;99.90;;;;;;5008749;28;20033;-76
2022/11/09 06:06:01;;;;;;;30.02;16.52;;;12.80;99.90;;;;;;5014884;28;20018;-77
2022/11/09 06:08:27;;;;;;;39.95;16.52;;;12.80;99.90;;;;;;5022680;28;20497;-75
2022/11/09 06:11:01;;;;;;;24.02;15.80;;;12.80;99.90;;;;;;5017529;28;20018;-77
2022/11/09 06:13:27;;;;;;;23.45;15.45;;;12.70;99.90;;;;;;5013863;28;20034;-76
2022/11/09 06:15:55;;;;;;;30.05;16.25;;;12.70;99.90;;;;;;5033636;28;20038;-77
2022/11/09 06:18:22;;;;;;;31.05;16.42;;;12.70;99.90;;;;;;5020962;28;20030;-77
2022/11/09 06:20:52;;;;;;;32.63;20.20;;;12.70;99.90;;;;;;5022350;28;20029;-77
2022/11/09 06:23:18;;;;;;;35.80;20.27;;;12.70;99.90;;;;;;5022622;28;20494;-77
2022/11/09 06:25:44;;;;;;;34.63;21.20;;;12.70;99.90;;;;;;5022783;28;20105;-77
2022/11/09 06:28:09;;;;;;;31.65;18.63;;;12.70;99.90;;;;;;5013596;28;20049;-77
2022/11/09 06:30:35;;;;;;;23.10;18.15;;;12.70;99.90;;;;;;5017684;28;20014;-77
2022/11/09 06:33:02;;;;;;;34.25;18.98;;;12.70;99.90;;;;;;5014888;28;20509;-77
2022/11/09 06:35:28;;;;;;;31.08;19.98;;;12.70;99.90;;;;;;5018765;28;20438;-77
2022/11/09 06:37:56;;;;;;;32.33;18.88;;;12.80;99.90;;;;;;5018642;28;20037;-76
2022/11/09 06:40:22;;;;;;;32.88;19.83;;;12.80;99.90;;;;;;5022472;28;20018;-77
2022/11/09 06:42:48;;;;;;;24.83;18.58;;;12.80;99.90;;;;;;5023613;28;20470;-76
2022/11/09 06:45:13;;;;;;;33.55;17.83;;;12.80;99.90;;;;;;5023431;28;20076;-76
2022/11/09 06:47:39;;;;;;;30.35;18.60;;;12.80;99.90;;;;;;5025398;28;20521;-77
2022/11/09 06:50:05;;;;;;;25.38;16.70;;;12.80;99.90;;;;;;5022452;28;20037;-77
2022/11/09 06:52:31;;;;;;;36.92;18.40;;;12.80;99.90;;;;;;5017548;28;20398;-76
2022/11/09 06:54:57;;;;;;;26.83;17.95;;;12.80;99.90;;;;;;5020759;28;20860;-76
2022/11/09 06:57:23;;;;;;;25.58;18.30;;;12.90;99.90;;;;;;5015062;28;20033;-75
2022/11/09 06:59:49;;;;;;;32.83;17.90;;;13.00;99.90;;;;;;5031514;28;20025;-75
2022/11/09 07:02:19;;;;;;;27.88;18.85;;;13.00;99.90;;;;;;5023252;28;20137;-75
2022/11/09 07:04:44;;;;;;;27.33;17.73;;;13.00;99.90;;;;;;5019483;28;20028;-76
2022/11/09 07:07:10;;;;;;;27.58;18.10;;;13.00;99.90;;;;;;5018663;28;21026;-76
2022/11/09 07:09:36;;;;;;;28.42;17.60;;;13.00;99.90;;;;;;5027846;28;20017;-76
2022/11/09 07:12:02;;;;;;;22.58;16.92;;;13.10;99.90;;;;;;5017523;28;20066;-76
2022/11/09 07:14:28;;;;;;;27.63;19.30;;;13.10;99.90;;;;;;5025127;28;20062;-76
2022/11/09 07:16:54;;;;;;;25.10;19.77;;;13.10;99.90;;;;;;5020662;28;20096;-76
2022/11/09 07:19:20;;;;;;;27.00;18.50;;;13.10;99.90;;;;;;5022078;28;20052;-76
2022/11/09 07:21:46;;;;;;;24.63;18.00;;;13.10;99.90;;;;;;5019033;28;20046;-75
2022/11/09 07:24:11;;;;;;;33.00;18.13;;;13.20;99.90;;;;;;5020546;28;20030;-75
2022/11/09 07:26:37;;;;;;;27.75;17.45;;;13.30;99.90;;;;;;5019287;28;20524;-75
2022/11/09 07:29:03;;;;;;;24.85;16.35;;;13.20;99.90;;;;;;5017682;28;20022;-75
2022/11/09 07:31:30;;;;;;;25.60;15.63;;;13.30;99.90;;;;;;5016216;28;20080;-75
2022/11/09 07:33:57;;;;;;;24.30;15.40;;;13.40;99.90;;;;;;5016738;28;20021;-75
2022/11/09 07:36:23;;;;;;;25.60;14.80;;;13.50;99.90;;;;;;5028495;28;20037;-75
2022/11/09 07:38:48;;;;;;;28.10;15.05;;;13.60;99.90;;;;;;5028028;28;20029;-76
2022/11/09 07:41:14;;;;;;;24.80;14.02;;;13.60;99.90;;;;;;5028816;28;20026;-75
2022/11/09 07:43:40;;;;;;;24.88;13.73;;;13.70;99.90;;;;;;5024831;28;20436;-75
2022/11/09 07:46:06;;;;;;;18.92;12.55;;;13.80;99.90;;;;;;5045321;28;20025;-78
2022/11/09 07:48:32;;;;;;;19.13;13.70;;;14.00;99.90;;;;;;5021315;28;20093;-75
2022/11/09 07:51:00;;;;;;;16.92;12.40;;;14.10;99.90;;;;;;5028859;28;20350;-77
2022/11/09 07:53:26;;;;;;;18.45;12.48;;;14.20;99.90;;;;;;5017346;28;20077;-75
2022/11/09 07:56:02;;;;;;;24.45;12.85;;;14.40;99.90;;;;;;5021949;28;20501;-75
2022/11/09 07:58:29;;;;;;;17.58;11.80;;;14.50;99.90;;;;;;5022879;28;20030;-75
2022/11/09 08:00:55;;;;;;;18.17;11.55;;;14.60;99.90;;;;;;5031864;28;20021;-75
2022/11/09 08:03:22;;;;;;;18.92;12.18;;;14.70;99.90;;;;;;5021185;28;20045;-75
2022/11/09 08:05:49;;;;;;;19.08;11.45;;;14.80;99.90;;;;;;5028582;28;20509;-75
2022/11/09 08:08:15;;;;;;;23.02;12.73;;;14.80;99.90;;;;;;5015252;28;20032;-75
2022/11/09 08:10:43;;;;;;;19.27;11.27;;;14.90;99.90;;;;;;5026833;28;20097;-75
2022/11/09 08:13:12;;;;;;;14.98;10.95;;;14.90;99.90;;;;;;5015899;28;20044;-75
2022/11/09 08:15:39;;;;;;;16.10;11.15;;;15.00;99.90;;;;;;5023327;28;20422;-75
2022/11/09 08:18:10;;;;;;;19.90;10.88;;;15.20;99.90;;;;;;5017931;28;20033;-75
2022/11/09 08:20:36;;;;;;;;;;;15.30;99.90;;;;;;5018541;28;20491;-75
2022/11/09 08:23:02;;;;;;;17.90;10.90;;;15.30;99.90;;;;;;5019803;28;19999;-75
2022/11/09 08:25:28;;;;;;;15.93;10.75;;;15.30;99.90;;;;;;5030923;28;20032;-74
2022/11/09 08:27:57;;;;;;;14.85;10.27;;;15.30;99.90;;;;;;5017881;28;20022;-77
2022/11/09 08:30:23;;;;;;;15.57;11.35;;;15.30;99.90;;;;;;5018230;28;20387;-77
2022/11/09 08:32:49;;;;;;;13.25;9.68;;;15.30;99.90;;;;;;5013079;28;20022;-77
2022/11/09 08:35:19;;;;;;;16.45;10.55;;;15.40;99.90;;;;;;5031304;28;20065;-77
2022/11/09 08:37:46;;;;;;;18.90;10.63;;;15.40;99.90;;;;;;5012758;28;20026;-74
2022/11/09 08:40:14;;;;;;;20.83;10.05;;;15.50;99.90;;;;;;5021010;28;20036;-75
2022/11/09 08:42:40;;;;;;;19.67;10.45;;;15.60;99.90;;;;;;5014910;28;20029;-75
2022/11/09 08:45:07;;;;;;;15.48;9.85;;;15.70;99.90;;;;;;5019114;28;20032;-75
2022/11/09 08:47:33;;;;;;;15.93;9.60;;;15.90;99.90;;;;;;5014672;28;20026;-75
2022/11/09 08:50:00;;;;;;;16.95;8.55;;;16.00;99.90;;;;;;5014293;28;20391;-75
2022/11/09 08:52:25;;;;;;;15.45;9.45;;;16.10;99.90;;;;;;5010873;28;20030;-77
2022/11/09 08:54:51;;;;;;;12.25;9.45;;;16.30;99.90;;;;;;5013961;28;20111;-76
2022/11/09 08:57:18;;;;;;;13.25;8.82;;;16.40;99.90;;;;;;5012436;28;20105;-75
2022/11/09 08:59:45;;;;;;;13.02;8.25;;;16.50;99.90;;;;;;5018963;28;20025;-74
2022/11/09 09:02:12;;;;;;;21.50;9.10;;;16.50;99.90;;;;;;5016955;28;20080;-74
2022/11/09 09:04:38;;;;;;;21.75;9.63;;;16.60;99.90;;;;;;5018524;28;20044;-74
2022/11/09 09:07:04;;;;;;;19.33;10.25;;;16.70;99.90;;;;;;5019708;28;20030;-76
2022/11/09 09:09:30;;;;;;;16.40;9.30;;;16.70;99.90;;;;;;5022320;28;20072;-76
2022/11/09 09:11:57;;;;;;;14.60;10.20;;;16.70;99.90;;;;;;5022618;28;20029;-75
2022/11/09 09:14:23;;;;;;;14.77;9.80;;;16.70;99.90;;;;;;5015106;28;20037;-75
2022/11/09 09:16:49;;;;;;;18.13;9.15;;;16.60;99.90;;;;;;5016776;28;20403;-75
2022/11/09 09:19:15;;;;;;;15.63;9.43;;;16.60;99.90;;;;;;5016563;28;20030;-74
2022/11/09 09:21:41;;;;;;;24.25;8.48;;;16.50;99.90;;;;;;5013820;28;20061;-75
2022/11/09 09:24:10;;;;;;;18.05;8.73;;;16.50;99.90;;;;;;5017077;28;20567;-74
2022/11/09 09:26:36;;;;;;;16.83;9.23;;;16.50;99.90;;;;;;5020041;28;20084;-81
2022/11/09 09:29:01;;;;;;;14.60;8.35;;;16.60;99.90;;;;;;5017843;28;20022;-79
2022/11/09 09:31:27;;;;;;;21.48;7.95;;;16.60;99.90;;;;;;5016641;28;20137;-79
2022/11/09 09:33:53;;;;;;;14.68;7.32;;;16.70;99.90;;;;;;5016334;28;20032;-79
2022/11/09 09:36:21;;;;;;;17.90;5.68;;;16.80;99.90;;;;;;5029712;28;20066;-79
2022/11/09 09:38:52;;;;;;;13.50;5.90;;;16.90;99.90;;;;;;5025720;28;20028;-79
2022/11/09 09:41:27;;;;;;;12.57;5.82;;;17.00;99.90;;;;;;5027339;28;20033;-80
2022/11/09 09:43:58;;;;;;;9.10;5.43;;;17.00;99.90;;;;;;5022790;28;20022;-79
2022/11/09 09:46:49;;;;;;;12.95;6.10;;;17.00;99.90;;;;;;5019277;28;20014;-79
2022/11/09 09:49:25;;;;;;;18.13;5.38;;;17.00;99.90;;;;;;5021314;28;20032;-81
2022/11/09 09:52:19;;;;;;;10.77;6.05;;;17.00;99.90;;;;;;5022872;28;20030;-80
2022/11/09 09:55:08;;;;;;;10.73;6.22;;;17.00;99.90;;;;;;5022188;28;20026;-80
2022/11/09 09:57:35;;;;;;;12.27;6.70;;;17.00;99.90;;;;;;5013312;28;20437;-80
2022/11/09 10:00:06;;;;;;;13.93;6.68;;;17.10;99.90;;;;;;5020059;28;20060;-80
2022/11/09 10:02:35;;;;;;;14.85;6.10;;;17.20;99.90;;;;;;5013403;28;20072;-80
2022/11/09 10:05:06;;;;;;;15.35;6.85;;;17.30;99.90;;;;;;5012818;28;20479;-80
2022/11/09 10:07:42;;;;;;;10.35;6.30;;;17.50;99.90;;;;;;5015416;28;20033;-79
2022/11/09 10:10:30;;;;;;;15.73;6.50;;;17.80;99.90;;;;;;5030840;28;20076;-80
2022/11/09 10:13:14;;;;;;;10.85;6.65;;;18.20;99.90;;;;;;5024304;28;20026;-75
2022/11/09 10:16:10;;;;;;;13.07;5.35;;;18.40;99.90;;;;;;5028197;28;20054;-74
2022/11/09 10:18:57;;;;;;;14.18;6.65;;;18.60;99.90;;;;;;5022834;28;20037;-75
2022/11/09 10:21:41;;;;;;;22.02;6.25;;;18.90;99.90;;;;;;5014673;28;20069;-73
2022/11/09 10:24:16;;;;;;;13.90;6.40;;;19.00;99.90;;;;;;5026762;28;20022;-74
2022/11/09 10:26:51;;;;;;;13.20;6.47;;;19.00;99.90;;;;;;5003862;28;20053;-75
2022/11/09 10:29:43;;;;;;;15.25;6.13;;;19.10;99.90;;;;;;4998531;28;20022;-75
2022/11/09 10:32:18;;;;;;;19.17;6.60;;;19.10;99.90;;;;;;5021449;28;20025;-75
2022/11/09 10:34:52;;;;;;;13.85;5.95;;;18.90;99.90;;;;;;5015552;28;20113;-75
2022/11/09 10:37:37;;;;;;;13.48;6.78;;;19.20;99.90;;;;;;5021859;28;20041;-75
2022/11/09 10:40:10;;;;;;;13.15;5.90;;;19.30;99.90;;;;;;5021862;28;20086;-74
2022/11/09 10:42:36;;;;;;;18.15;5.80;;;19.10;99.90;;;;;;5011454;28;20022;-74
2022/11/09 10:45:24;;;;;;;18.02;5.95;;;19.20;99.90;;;;;;4999662;28;20026;-74
2022/11/09 10:47:51;;;;;;;12.82;6.15;;;19.10;99.90;;;;;;5007898;28;20034;-73
2022/11/09 10:50:30;;;;;;;19.33;5.65;;;19.10;99.90;;;;;;5011185;28;20049;-75
2022/11/09 10:53:15;;;;;;;15.52;5.72;;;19.10;99.90;;;;;;5010823;28;20034;-75
2022/11/09 10:55:55;;;;;;;12.32;5.97;;;19.20;99.90;;;;;;5023958;28;20053;-75
2022/11/09 10:58:23;;;;;;;13.15;5.72;;;19.20;99.90;;;;;;5026506;28;20033;-75
2022/11/09 11:01:00;;;;;;;11.00;5.55;;;19.30;99.90;;;;;;5022511;28;20063;-75
2022/11/09 11:03:27;;;;;;;11.00;5.35;;;19.30;99.90;;;;;;5031114;28;20466;-76
2022/11/09 11:06:22;;;;;;;12.52;5.80;;;19.40;99.90;;;;;;5016018;28;20425;-75
2022/11/09 11:08:51;;;;;;;17.35;6.10;;;19.50;99.90;;;;;;5016930;28;20029;-76
2022/11/09 11:11:24;;;;;;;9.80;5.53;;;19.20;99.90;;;;;;5019874;28;20029;-76
2022/11/09 11:14:16;;;;;;;10.60;4.30;;;19.30;99.90;;;;;;5030501;28;20032;-76
2022/11/09 11:16:42;;;;;;;7.97;3.97;;;19.30;99.90;;;;;;5027591;28;20038;-75
2022/11/09 11:19:44;;;;;;;11.10;3.90;;;19.30;99.90;;;;;;5025192;28;20541;-75
2022/11/09 11:22:10;;;;;;;11.18;4.90;;;19.40;99.90;;;;;;5051427;28;20029;-75
2022/11/09 11:24:54;;;;;;;9.75;4.32;;;19.30;99.90;;;;;;5024518;28;20025;-75
2022/11/09 11:27:33;;;;;;;16.60;4.85;;;19.20;99.90;;;;;;5019918;28;20036;-75
2022/11/09 11:30:13;;;;;;;8.45;4.57;;;19.10;99.90;;;;;;5028546;28;20025;-75
2022/11/09 11:32:39;;;;;;;9.60;4.22;;;18.90;99.90;;;;;;5017466;28;20041;-75
2022/11/09 11:35:20;;;;;;;11.23;5.20;;;18.80;99.90;;;;;;5023861;28;20029;-74
2022/11/09 11:38:04;;;;;;;13.73;5.00;;;18.70;99.90;;;;;;5018136;28;20038;-75
2022/11/09 11:41:02;;;;;;;14.65;5.30;;;18.60;99.90;;;;;;5032288;28;20097;-75
2022/11/09 11:43:50;;;;;;;10.80;4.35;;;18.50;99.90;;;;;;5015366;28;20494;-75
2022/11/09 11:46:45;;;;;;;15.57;4.20;;;18.50;99.90;;;;;;5018632;28;20473;-75
2022/11/09 11:49:48;;;;;;;8.90;3.70;;;18.40;99.90;;;;;;5019098;28;20030;-75
2022/11/09 11:52:33;;;;;;;9.98;3.72;;;18.30;99.90;;;;;;5012654;28;20461;-74
2022/11/09 11:54:59;;;;;;;5.53;2.90;;;18.30;99.90;;;;;;5023690;28;20529;-74
2022/11/09 11:57:38;;;;;;;5.18;3.15;;;18.30;99.90;;;;;;5022725;28;20034;-75
2022/11/09 12:00:10;;;;;;;5.07;2.67;;;18.30;99.90;;;;;;5022489;28;20036;-75
2022/11/09 12:02:54;;;;;;;4.10;2.50;;;18.30;99.90;;;;;;5018676;28;20049;-75
2022/11/09 12:05:49;;;;;;;8.90;2.80;;;18.20;99.90;;;;;;5027909;28;20021;-75
2022/11/09 12:08:24;;;;;;;5.53;2.60;;;18.20;99.90;;;;;;5019273;28;20026;-75
2022/11/09 12:11:04;;;;;;;3.47;2.15;;;18.20;99.90;;;;;;5021921;28;20065;-75
2022/11/09 12:13:32;;;;;;;7.30;2.30;;;18.00;99.90;;;;;;5017227;28;20034;-75
2022/11/09 12:16:14;;;;;;;3.90;2.10;;;17.90;99.90;;;;;;5022942;28;20049;-74
2022/11/09 12:19:11;;;;;;;3.58;2.35;;;17.70;99.90;;;;;;5017281;28;20061;-74
2022/11/09 12:21:58;;;;;;;5.60;2.08;;;17.50;99.90;;;;;;5026961;28;20021;-75
2022/11/09 12:24:57;;;;;;;4.15;2.40;;;17.30;99.90;;;;;;5016873;28;20555;-75
2022/11/09 12:27:41;;;;;;;5.70;2.33;;;17.30;99.90;;;;;;5012593;28;20061;-74
2022/11/09 12:30:24;;;;;;;10.43;3.42;;;17.10;99.90;;;;;;5020402;28;20121;-74
2022/11/09 12:33:05;;;;;;;4.57;2.55;;;16.90;99.90;;;;;;5023021;28;20433;-75
2022/11/09 12:35:38;;;;;;;8.57;2.45;;;16.20;99.90;;;;;;5032680;28;20045;-75
2022/11/09 12:38:32;;;;;;;4.80;2.13;;;15.80;99.90;;;;;;5018925;28;20058;-75
2022/11/09 12:41:11;;;;;;;7.47;2.83;;;15.50;99.90;;;;;;5039636;28;20025;-77
2022/11/09 12:43:51;;;;;;;7.53;2.78;;;15.30;99.90;;;;;;5021410;28;20092;-77
2022/11/09 12:46:21;;;;;;;7.22;2.97;;;15.30;99.90;;;;;;5025027;28;20022;-76